sensor_id;sensor_type;location;lat;lon;timestamp;pressure;altitude;pressure_sealevel;temperature;humidity
43119;BME280;28729;49.838;8.650;2023-06-05T00:00:00;99964.50;;;14.45;53.22
43119;BME280;28729;49.838;8.650;2023-06-05T00:04:12;99956.75;;;14.37;53.04
43119;BME280;28729;49.838;8.650;2023-06-05T00:08:14;99959.75;;;14.30;53.12
43119;BME280;28729;49.838;8.650;2023-06-05T00:12:16;99962.75;;;14.24;53.52
43119;BME280;28729;49.838;8.650;2023-06-05T00:16:18;99959.41;;;14.22;54.00
43119;BME280;28729;49.838;8.650;2023-06-05T00:20:20;99954.97;;;14.16;55.25
43119;BME280;28729;49.838;8.650;2023-06-05T00:24:21;99958.28;;;14.12;55.02
43119;BME280;28729;49.838;8.650;2023-06-05T00:28:23;99957.69;;;14.05;54.43
43119;BME280;28729;49.838;8.650;2023-06-05T00:32:25;99957.13;;;14.03;55.76
43119;BME280;28729;49.838;8.650;2023-06-05T00:36:28;99946.03;;;13.98;55.06
43119;BME280;28729;49.838;8.650;2023-06-05T00:40:31;99955.72;;;13.96;56.31
43119;BME280;28729;49.838;8.650;2023-06-05T00:44:32;99944.84;;;13.89;56.17
43119;BME280;28729;49.838;8.650;2023-06-05T00:48:34;99950.09;;;13.85;56.15
43119;BME280;28729;49.838;8.650;2023-06-05T00:52:36;99949.22;;;13.80;56.31
43119;BME280;28729;49.838;8.650;2023-06-05T00:56:40;99947.84;;;13.77;56.97
43119;BME280;28729;49.838;8.650;2023-06-05T01:00:43;99946.69;;;13.73;55.11
43119;BME280;28729;49.838;8.650;2023-06-05T01:04:46;99947.81;;;13.72;55.69
43119;BME280;28729;49.838;8.650;2023-06-05T01:08:48;99945.31;;;13.71;56.38
43119;BME280;28729;49.838;8.650;2023-06-05T01:12:58;99946.66;;;13.68;56.46
43119;BME280;28729;49.838;8.650;2023-06-05T01:17:04;99938.06;;;13.64;55.39
43119;BME280;28729;49.838;8.650;2023-06-05T01:21:12;99941.41;;;13.66;54.14
43119;BME280;28729;49.838;8.650;2023-06-05T01:25:17;99945.88;;;13.73;53.41
43119;BME280;28729;49.838;8.650;2023-06-05T01:29:25;99940.59;;;13.71;52.63
43119;BME280;28729;49.838;8.650;2023-06-05T01:33:38;99953.06;;;13.74;52.07
43119;BME280;28729;49.838;8.650;2023-06-05T01:37:46;99934.25;;;13.76;51.67
43119;BME280;28729;49.838;8.650;2023-06-05T01:41:54;99933.19;;;13.82;51.10
43119;BME280;28729;49.838;8.650;2023-06-05T01:45:56;99929.06;;;13.84;50.49
43119;BME280;28729;49.838;8.650;2023-06-05T01:50:00;99928.22;;;13.89;49.61
43119;BME280;28729;49.838;8.650;2023-06-05T01:54:02;99930.50;;;13.97;49.05
43119;BME280;28729;49.838;8.650;2023-06-05T01:58:04;99929.41;;;14.03;48.73
43119;BME280;28729;49.838;8.650;2023-06-05T02:02:06;99930.78;;;14.01;49.04
43119;BME280;28729;49.838;8.650;2023-06-05T02:06:08;99918.31;;;13.98;48.95
43119;BME280;28729;49.838;8.650;2023-06-05T02:10:10;99931.91;;;14.00;48.35
43119;BME280;28729;49.838;8.650;2023-06-05T02:14:13;99913.88;;;13.97;48.57
43119;BME280;28729;49.838;8.650;2023-06-05T02:18:15;99914.94;;;13.91;48.71
43119;BME280;28729;49.838;8.650;2023-06-05T02:22:18;99923.56;;;13.89;48.55
43119;BME280;28729;49.838;8.650;2023-06-05T02:26:20;99924.38;;;13.90;48.05
43119;BME280;28729;49.838;8.650;2023-06-05T02:30:23;99919.13;;;13.94;47.56
43119;BME280;28729;49.838;8.650;2023-06-05T02:34:25;99913.63;;;13.99;47.29
43119;BME280;28729;49.838;8.650;2023-06-05T02:38:27;99923.28;;;13.96;47.54
43119;BME280;28729;49.838;8.650;2023-06-05T02:42:30;99918.88;;;13.95;47.45
43119;BME280;28729;49.838;8.650;2023-06-05T02:46:32;99919.69;;;13.96;46.78
43119;BME280;28729;49.838;8.650;2023-06-05T02:50:34;99924.13;;;13.97;46.52
43119;BME280;28729;49.838;8.650;2023-06-05T02:54:39;99915.53;;;13.93;46.55
43119;BME280;28729;49.838;8.650;2023-06-05T02:58:44;99919.38;;;13.87;46.60
43119;BME280;28729;49.838;8.650;2023-06-05T03:02:47;99929.31;;;13.83;46.24
43119;BME280;28729;49.838;8.650;2023-06-05T03:06:54;99922.66;;;13.79;46.35
43119;BME280;28729;49.838;8.650;2023-06-05T03:11:00;99922.06;;;13.77;46.51
43119;BME280;28729;49.838;8.650;2023-06-05T03:15:04;99930.91;;;13.74;46.65
43119;BME280;28729;49.838;8.650;2023-06-05T03:19:08;99929.78;;;13.70;46.91
43119;BME280;28729;49.838;8.650;2023-06-05T03:23:11;99936.97;;;13.65;46.94
43119;BME280;28729;49.838;8.650;2023-06-05T03:27:13;99934.75;;;13.62;47.02
43119;BME280;28729;49.838;8.650;2023-06-05T03:31:16;99929.16;;;13.57;47.15
43119;BME280;28729;49.838;8.650;2023-06-05T03:35:20;99934.66;;;13.52;47.31
43119;BME280;28729;49.838;8.650;2023-06-05T03:39:22;99928.00;;;13.48;47.77
43119;BME280;28729;49.838;8.650;2023-06-05T03:43:25;99940.13;;;13.42;48.11
43119;BME280;28729;49.838;8.650;2023-06-05T03:47:27;99935.09;;;13.34;48.65
43119;BME280;28729;49.838;8.650;2023-06-05T03:51:31;99931.72;;;13.27;48.94
43119;BME280;28729;49.838;8.650;2023-06-05T03:55:33;99930.47;;;13.17;49.41
43119;BME280;28729;49.838;8.650;2023-06-05T03:59:50;99934.94;;;13.18;49.35
43119;BME280;28729;49.838;8.650;2023-06-05T04:03:52;99938.78;;;13.17;49.51
43119;BME280;28729;49.838;8.650;2023-06-05T04:07:54;99937.34;;;13.10;50.60
43119;BME280;28729;49.838;8.650;2023-06-05T04:11:56;99944.78;;;13.04;51.30
43119;BME280;28729;49.838;8.650;2023-06-05T04:16:00;99951.06;;;12.99;51.33
43119;BME280;28729;49.838;8.650;2023-06-05T04:20:04;99940.22;;;12.93;52.21
43119;BME280;28729;49.838;8.650;2023-06-05T04:24:08;99944.84;;;12.82;53.54
43119;BME280;28729;49.838;8.650;2023-06-05T04:28:12;99942.56;;;12.74;53.30
43119;BME280;28729;49.838;8.650;2023-06-05T04:32:14;99940.63;;;12.74;54.21
43119;BME280;28729;49.838;8.650;2023-06-05T04:36:18;99933.72;;;12.77;54.09
43119;BME280;28729;49.838;8.650;2023-06-05T04:40:20;99936.22;;;12.78;54.58
43119;BME280;28729;49.838;8.650;2023-06-05T04:44:24;99936.59;;;12.87;54.16
43119;BME280;28729;49.838;8.650;2023-06-05T04:48:27;99935.59;;;12.98;53.34
43119;BME280;28729;49.838;8.650;2023-06-05T04:52:33;99938.41;;;13.04;53.34
43119;BME280;28729;49.838;8.650;2023-06-05T04:56:37;99939.13;;;13.21;52.87
43119;BME280;28729;49.838;8.650;2023-06-05T05:00:42;99947.81;;;13.30;53.23
43119;BME280;28729;49.838;8.650;2023-06-05T05:04:50;99950.63;;;13.40;52.90
43119;BME280;28729;49.838;8.650;2023-06-05T05:08:54;99954.31;;;13.51;52.75
43119;BME280;28729;49.838;8.650;2023-06-05T05:12:56;99953.03;;;13.63;52.36
43119;BME280;28729;49.838;8.650;2023-06-05T05:17:03;99955.81;;;13.68;52.52
43119;BME280;28729;49.838;8.650;2023-06-05T05:21:08;99954.75;;;13.75;53.04
43119;BME280;28729;49.838;8.650;2023-06-05T05:25:11;99964.22;;;13.84;52.97
43119;BME280;28729;49.838;8.650;2023-06-05T05:29:12;99964.56;;;13.93;53.49
43119;BME280;28729;49.838;8.650;2023-06-05T05:33:16;99969.56;;;14.01;53.32
43119;BME280;28729;49.838;8.650;2023-06-05T05:37:18;99972.13;;;14.07;53.76
43119;BME280;28729;49.838;8.650;2023-06-05T05:41:21;99971.03;;;14.19;53.49
43119;BME280;28729;49.838;8.650;2023-06-05T05:45:24;99973.59;;;14.30;53.58
43119;BME280;28729;49.838;8.650;2023-06-05T05:49:26;99977.53;;;14.40;54.15
43119;BME280;28729;49.838;8.650;2023-06-05T05:53:31;99977.28;;;14.46;54.99
43119;BME280;28729;49.838;8.650;2023-06-05T05:57:34;99978.72;;;14.54;54.88
43119;BME280;28729;49.838;8.650;2023-06-05T06:01:37;99978.47;;;14.61;55.12
43119;BME280;28729;49.838;8.650;2023-06-05T06:05:41;99983.22;;;14.70;54.02
43119;BME280;28729;49.838;8.650;2023-06-05T06:09:46;99982.97;;;14.87;54.10
43119;BME280;28729;49.838;8.650;2023-06-05T06:13:48;99985.78;;;15.02;54.08
43119;BME280;28729;49.838;8.650;2023-06-05T06:17:51;99977.47;;;15.18;53.55
43119;BME280;28729;49.838;8.650;2023-06-05T06:21:55;99971.63;;;15.35;53.82
43119;BME280;28729;49.838;8.650;2023-06-05T06:25:58;99976.38;;;15.55;52.50
43119;BME280;28729;49.838;8.650;2023-06-05T06:30:01;99981.94;;;15.75;53.98
43119;BME280;28729;49.838;8.650;2023-06-05T06:34:03;99974.13;;;15.92;53.26
43119;BME280;28729;49.838;8.650;2023-06-05T06:38:04;99981.03;;;16.10;52.11
43119;BME280;28729;49.838;8.650;2023-06-05T06:42:06;99980.94;;;16.36;51.11
43119;BME280;28729;49.838;8.650;2023-06-05T06:46:08;99979.16;;;16.60;50.19
43119;BME280;28729;49.838;8.650;2023-06-05T06:50:10;99982.97;;;16.85;50.15
43119;BME280;28729;49.838;8.650;2023-06-05T06:54:13;99983.63;;;17.11;49.04
43119;BME280;28729;49.838;8.650;2023-06-05T06:58:15;99975.91;;;17.37;48.75
43119;BME280;28729;49.838;8.650;2023-06-05T07:02:19;99985.41;;;17.65;47.70
43119;BME280;28729;49.838;8.650;2023-06-05T07:06:24;99981.88;;;17.89;47.74
43119;BME280;28729;49.838;8.650;2023-06-05T07:10:28;99985.56;;;18.08;47.73
43119;BME280;28729;49.838;8.650;2023-06-05T07:14:33;99979.94;;;18.37;46.02
43119;BME280;28729;49.838;8.650;2023-06-05T07:18:38;99986.25;;;18.67;46.20
43119;BME280;28729;49.838;8.650;2023-06-05T07:22:45;99979.44;;;18.97;45.21
43119;BME280;28729;49.838;8.650;2023-06-05T07:26:48;99981.72;;;19.14;43.32
43119;BME280;28729;49.838;8.650;2023-06-05T07:30:49;99977.56;;;19.30;42.07
43119;BME280;28729;49.838;8.650;2023-06-05T07:34:51;99967.59;;;19.57;43.11
43119;BME280;28729;49.838;8.650;2023-06-05T07:38:53;99974.13;;;19.85;42.43
43119;BME280;28729;49.838;8.650;2023-06-05T07:42:56;99970.34;;;20.09;41.53
43119;BME280;28729;49.838;8.650;2023-06-05T07:46:59;99978.94;;;20.26;40.71
43119;BME280;28729;49.838;8.650;2023-06-05T07:51:05;99977.06;;;20.49;40.36
43119;BME280;28729;49.838;8.650;2023-06-05T07:55:10;99969.41;;;20.68;39.81
43119;BME280;28729;49.838;8.650;2023-06-05T07:59:15;99970.22;;;20.83;39.26
43119;BME280;28729;49.838;8.650;2023-06-05T08:03:20;99968.91;;;21.03;39.99
43119;BME280;28729;49.838;8.650;2023-06-05T08:07:22;99965.94;;;21.22;38.66
43119;BME280;28729;49.838;8.650;2023-06-05T08:11:27;99964.63;;;21.42;38.74
43119;BME280;28729;49.838;8.650;2023-06-05T08:15:30;99970.59;;;21.71;38.55
43119;BME280;28729;49.838;8.650;2023-06-05T08:19:32;99962.00;;;21.90;37.64
43119;BME280;28729;49.838;8.650;2023-06-05T08:23:34;99966.53;;;22.08;37.80
43119;BME280;28729;49.838;8.650;2023-06-05T08:27:36;99963.88;;;22.35;37.63
43119;BME280;28729;49.838;8.650;2023-06-05T08:31:39;99956.00;;;22.54;37.77
43119;BME280;28729;49.838;8.650;2023-06-05T08:35:42;99948.94;;;22.74;38.04
43119;BME280;28729;49.838;8.650;2023-06-05T08:39:44;99948.50;;;22.98;37.66
43119;BME280;28729;49.838;8.650;2023-06-05T08:43:48;99947.19;;;23.22;37.43
43119;BME280;28729;49.838;8.650;2023-06-05T08:47:50;99953.97;;;23.29;36.94
43119;BME280;28729;49.838;8.650;2023-06-05T08:51:53;99948.16;;;23.34;36.50
43119;BME280;28729;49.838;8.650;2023-06-05T08:55:57;99949.81;;;23.44;36.33
43119;BME280;28729;49.838;8.650;2023-06-05T09:00:00;99943.97;;;23.66;36.52
43119;BME280;28729;49.838;8.650;2023-06-05T09:04:03;99944.25;;;23.91;35.88
43119;BME280;28729;49.838;8.650;2023-06-05T09:08:05;99942.38;;;24.13;36.25
43119;BME280;28729;49.838;8.650;2023-06-05T09:12:08;99945.81;;;24.18;35.93
43119;BME280;28729;49.838;8.650;2023-06-05T09:16:18;99949.59;;;24.31;36.22
43119;BME280;28729;49.838;8.650;2023-06-05T09:20:24;99940.09;;;24.44;35.50
43119;BME280;28729;49.838;8.650;2023-06-05T09:24:27;99933.91;;;24.51;35.89
43119;BME280;28729;49.838;8.650;2023-06-05T09:28:31;99935.03;;;24.59;35.99
43119;BME280;28729;49.838;8.650;2023-06-05T09:32:33;99933.63;;;24.94;36.02
43119;BME280;28729;49.838;8.650;2023-06-05T09:36:44;99925.38;;;25.10;34.93
43119;BME280;28729;49.838;8.650;2023-06-05T09:40:47;99927.16;;;25.36;34.72
43119;BME280;28729;49.838;8.650;2023-06-05T09:44:58;99922.09;;;25.62;34.62
43119;BME280;28729;49.838;8.650;2023-06-05T09:49:01;99917.41;;;25.66;34.63
43119;BME280;28729;49.838;8.650;2023-06-05T09:53:03;99920.38;;;25.70;33.33
43119;BME280;28729;49.838;8.650;2023-06-05T09:57:08;99914.31;;;25.92;32.82
43119;BME280;28729;49.838;8.650;2023-06-05T10:01:19;99917.63;;;26.07;33.26
43119;BME280;28729;49.838;8.650;2023-06-05T10:05:25;99923.88;;;26.25;32.33
43119;BME280;28729;49.838;8.650;2023-06-05T10:09:29;99916.81;;;26.19;30.42
43119;BME280;28729;49.838;8.650;2023-06-05T10:13:36;99911.06;;;26.27;31.25
43119;BME280;28729;49.838;8.650;2023-06-05T10:17:39;99920.44;;;26.44;31.44
43119;BME280;28729;49.838;8.650;2023-06-05T10:21:47;99910.56;;;26.62;30.25
43119;BME280;28729;49.838;8.650;2023-06-05T10:25:50;99912.88;;;26.85;30.04
43119;BME280;28729;49.838;8.650;2023-06-05T10:38:56;99894.34;;;26.99;29.12
43119;BME280;28729;49.838;8.650;2023-06-05T10:43:25;99893.72;;;27.18;28.11
43119;BME280;28729;49.838;8.650;2023-06-05T10:51:34;99887.41;;;27.81;27.72
43119;BME280;28729;49.838;8.650;2023-06-05T10:55:42;99889.78;;;27.95;27.29
43119;BME280;28729;49.838;8.650;2023-06-05T11:00:04;99886.13;;;28.26;27.17
43119;BME280;28729;49.838;8.650;2023-06-05T11:04:08;99882.44;;;28.57;25.77
43119;BME280;28729;49.838;8.650;2023-06-05T11:08:16;99882.31;;;28.70;25.42
43119;BME280;28729;49.838;8.650;2023-06-05T11:12:18;99876.03;;;28.60;25.95
43119;BME280;28729;49.838;8.650;2023-06-05T11:16:29;99870.81;;;28.62;24.97
43119;BME280;28729;49.838;8.650;2023-06-05T11:24:35;99868.59;;;28.91;25.45
43119;BME280;28729;49.838;8.650;2023-06-05T11:28:43;99860.25;;;29.18;24.93
43119;BME280;28729;49.838;8.650;2023-06-05T11:32:45;99855.56;;;29.25;23.97
43119;BME280;28729;49.838;8.650;2023-06-05T11:36:48;99845.41;;;29.24;23.38
43119;BME280;28729;49.838;8.650;2023-06-05T11:40:52;99844.78;;;29.35;23.22
43119;BME280;28729;49.838;8.650;2023-06-05T11:44:55;99843.50;;;29.74;24.10
43119;BME280;28729;49.838;8.650;2023-06-05T11:48:58;99837.06;;;30.01;23.49
43119;BME280;28729;49.838;8.650;2023-06-05T11:53:09;99838.34;;;30.26;22.13
43119;BME280;28729;49.838;8.650;2023-06-05T11:57:15;99827.06;;;30.33;21.65
43119;BME280;28729;49.838;8.650;2023-06-05T12:01:22;99825.38;;;30.55;21.82
43119;BME280;28729;49.838;8.650;2023-06-05T12:05:35;99822.00;;;30.76;21.73
43119;BME280;28729;49.838;8.650;2023-06-05T12:09:39;99826.03;;;30.75;21.33
43119;BME280;28729;49.838;8.650;2023-06-05T12:13:47;99825.28;;;30.78;21.82
43119;BME280;28729;49.838;8.650;2023-06-05T12:17:50;99820.31;;;31.36;21.43
43119;BME280;28729;49.838;8.650;2023-06-05T12:22:03;99819.69;;;32.49;19.28
43119;BME280;28729;49.838;8.650;2023-06-05T12:26:07;99809.06;;;33.41;19.08
43119;BME280;28729;49.838;8.650;2023-06-05T12:30:11;99806.69;;;34.11;18.08
43119;BME280;28729;49.838;8.650;2023-06-05T12:34:15;99800.41;;;34.80;18.00
43119;BME280;28729;49.838;8.650;2023-06-05T12:38:17;99808.75;;;35.37;17.02
43119;BME280;28729;49.838;8.650;2023-06-05T12:42:23;99799.81;;;35.88;16.84
43119;BME280;28729;49.838;8.650;2023-06-05T12:46:28;99785.66;;;36.11;16.19
43119;BME280;28729;49.838;8.650;2023-06-05T12:50:31;99756.63;;;36.09;15.85
43119;BME280;28729;49.838;8.650;2023-06-05T12:54:36;99792.16;;;36.91;17.92
43119;BME280;28729;49.838;8.650;2023-06-05T12:58:38;99780.91;;;37.07;16.44
43119;BME280;28729;49.838;8.650;2023-06-05T13:02:43;99778.16;;;36.96;16.03
43119;BME280;28729;49.838;8.650;2023-06-05T13:06:47;99771.75;;;37.97;16.15
43119;BME280;28729;49.838;8.650;2023-06-05T13:10:50;99769.28;;;38.19;15.49
43119;BME280;28729;49.838;8.650;2023-06-05T13:14:52;99763.75;;;38.72;15.04
43119;BME280;28729;49.838;8.650;2023-06-05T13:18:54;99763.81;;;39.61;14.67
43119;BME280;28729;49.838;8.650;2023-06-05T13:22:57;99760.50;;;39.95;14.37
43119;BME280;28729;49.838;8.650;2023-06-05T13:26:59;99754.44;;;38.44;15.06
43119;BME280;28729;49.838;8.650;2023-06-05T13:31:01;99758.09;;;35.79;16.69
43119;BME280;28729;49.838;8.650;2023-06-05T13:35:06;99754.81;;;33.66;18.42
43119;BME280;28729;49.838;8.650;2023-06-05T13:39:10;99736.00;;;33.43;18.60
43119;BME280;28729;49.838;8.650;2023-06-05T13:43:13;99749.13;;;35.18;17.86
43119;BME280;28729;49.838;8.650;2023-06-05T13:47:15;99713.09;;;36.86;15.68
43119;BME280;28729;49.838;8.650;2023-06-05T13:51:17;99720.53;;;38.52;15.04
43119;BME280;28729;49.838;8.650;2023-06-05T13:55:21;99721.19;;;39.85;15.46
43119;BME280;28729;49.838;8.650;2023-06-05T13:59:23;99717.06;;;38.61;14.62
43119;BME280;28729;49.838;8.650;2023-06-05T14:03:31;99720.16;;;36.10;16.36
43119;BME280;28729;49.838;8.650;2023-06-05T14:07:33;99725.28;;;34.58;17.73
43119;BME280;28729;49.838;8.650;2023-06-05T14:11:50;99718.13;;;36.07;16.60
43119;BME280;28729;49.838;8.650;2023-06-05T14:15:52;99707.44;;;38.07;15.65
43119;BME280;28729;49.838;8.650;2023-06-05T14:19:54;99713.97;;;39.44;14.72
43119;BME280;28729;49.838;8.650;2023-06-05T14:23:57;99725.72;;;38.61;15.34
43119;BME280;28729;49.838;8.650;2023-06-05T14:28:00;99717.16;;;36.20;16.59
43119;BME280;28729;49.838;8.650;2023-06-05T14:32:01;99721.66;;;34.40;18.08
43119;BME280;28729;49.838;8.650;2023-06-05T14:36:04;99706.56;;;32.96;19.25
43119;BME280;28729;49.838;8.650;2023-06-05T14:40:08;99717.06;;;31.94;20.00
43119;BME280;28729;49.838;8.650;2023-06-05T14:44:10;99705.00;;;34.10;18.24
43119;BME280;28729;49.838;8.650;2023-06-05T14:48:24;99697.72;;;36.69;16.65
43119;BME280;28729;49.838;8.650;2023-06-05T14:52:25;99699.56;;;38.12;15.06
43119;BME280;28729;49.838;8.650;2023-06-05T14:56:30;99700.47;;;38.88;14.97
43119;BME280;28729;49.838;8.650;2023-06-05T15:00:32;99698.09;;;39.19;14.83
43119;BME280;28729;49.838;8.650;2023-06-05T15:04:35;99700.13;;;38.46;15.28
43119;BME280;28729;49.838;8.650;2023-06-05T15:08:39;99700.78;;;37.40;15.93
43119;BME280;28729;49.838;8.650;2023-06-05T15:12:41;99703.97;;;37.49;16.03
43119;BME280;28729;49.838;8.650;2023-06-05T15:16:44;99690.59;;;37.35;16.28
43119;BME280;28729;49.838;8.650;2023-06-05T15:20:49;99688.38;;;36.62;16.71
43119;BME280;28729;49.838;8.650;2023-06-05T15:24:51;99686.59;;;34.14;18.15
43119;BME280;28729;49.838;8.650;2023-06-05T15:28:53;99685.28;;;32.68;18.99
43119;BME280;28729;49.838;8.650;2023-06-05T15:32:55;99676.78;;;31.44;19.93
43119;BME280;28729;49.838;8.650;2023-06-05T15:36:58;99672.63;;;30.56;21.10
43119;BME280;28729;49.838;8.650;2023-06-05T15:40:59;99683.31;;;30.06;21.88
43119;BME280;28729;49.838;8.650;2023-06-05T15:45:13;99690.63;;;29.53;22.45
43119;BME280;28729;49.838;8.650;2023-06-05T15:49:17;99685.84;;;29.35;22.24
43119;BME280;28729;49.838;8.650;2023-06-05T15:53:20;99676.59;;;29.15;23.02
43119;BME280;28729;49.838;8.650;2023-06-05T15:57:24;99674.22;;;28.74;22.89
43119;BME280;28729;49.838;8.650;2023-06-05T16:01:27;99673.91;;;28.40;23.30
43119;BME280;28729;49.838;8.650;2023-06-05T16:05:29;99660.72;;;28.09;23.91
43119;BME280;28729;49.838;8.650;2023-06-05T16:09:34;99662.28;;;28.07;23.51
43119;BME280;28729;49.838;8.650;2023-06-05T16:13:42;99665.25;;;27.94;24.20
43119;BME280;28729;49.838;8.650;2023-06-05T16:17:47;99665.56;;;27.73;23.94
43119;BME280;28729;49.838;8.650;2023-06-05T16:21:54;99666.63;;;27.69;24.08
43119;BME280;28729;49.838;8.650;2023-06-05T16:26:08;99656.25;;;27.57;24.45
43119;BME280;28729;49.838;8.650;2023-06-05T16:30:10;99654.19;;;27.38;24.04
43119;BME280;28729;49.838;8.650;2023-06-05T16:34:13;99658.00;;;27.14;24.61
43119;BME280;28729;49.838;8.650;2023-06-05T16:38:16;99660.47;;;27.00;24.64
43119;BME280;28729;49.838;8.650;2023-06-05T16:42:19;99658.09;;;27.02;25.12
43119;BME280;28729;49.838;8.650;2023-06-05T16:46:22;99656.75;;;26.96;24.73
43119;BME280;28729;49.838;8.650;2023-06-05T16:50:25;99656.91;;;26.87;24.70
43119;BME280;28729;49.838;8.650;2023-06-05T16:54:27;99661.81;;;26.74;25.02
43119;BME280;28729;49.838;8.650;2023-06-05T16:58:29;99656.53;;;26.73;25.24
43119;BME280;28729;49.838;8.650;2023-06-05T17:02:30;99662.59;;;26.59;25.77
43119;BME280;28729;49.838;8.650;2023-06-05T17:06:33;99658.38;;;26.53;25.61
43119;BME280;28729;49.838;8.650;2023-06-05T17:10:36;99654.69;;;26.36;25.53
43119;BME280;28729;49.838;8.650;2023-06-05T17:14:38;99652.81;;;26.28;25.19
43119;BME280;28729;49.838;8.650;2023-06-05T17:18:40;99663.69;;;26.14;26.29
43119;BME280;28729;49.838;8.650;2023-06-05T17:22:42;99658.47;;;26.00;26.06
43119;BME280;28729;49.838;8.650;2023-06-05T17:26:44;99661.16;;;25.97;25.46
43119;BME280;28729;49.838;8.650;2023-06-05T17:30:46;99669.41;;;25.89;25.08
43119;BME280;28729;49.838;8.650;2023-06-05T17:34:49;99667.69;;;25.85;25.51
43119;BME280;28729;49.838;8.650;2023-06-05T17:38:53;99669.66;;;25.72;25.76
43119;BME280;28729;49.838;8.650;2023-06-05T17:42:55;99673.78;;;25.62;25.68
43119;BME280;28729;49.838;8.650;2023-06-05T17:46:57;99674.63;;;25.51;25.88
43119;BME280;28729;49.838;8.650;2023-06-05T17:50:59;99665.94;;;25.43;25.87
43119;BME280;28729;49.838;8.650;2023-06-05T17:55:02;99661.94;;;25.32;26.55
43119;BME280;28729;49.838;8.650;2023-06-05T17:59:09;99670.50;;;25.23;26.73
43119;BME280;28729;49.838;8.650;2023-06-05T18:03:14;99662.59;;;25.05;27.21
43119;BME280;28729;49.838;8.650;2023-06-05T18:07:16;99678.44;;;24.97;26.83
43119;BME280;28729;49.838;8.650;2023-06-05T18:11:22;99674.63;;;24.81;27.02
43119;BME280;28729;49.838;8.650;2023-06-05T18:15:30;99674.25;;;24.70;27.13
43119;BME280;28729;49.838;8.650;2023-06-05T18:19:32;99677.03;;;24.58;27.57
43119;BME280;28729;49.838;8.650;2023-06-05T18:23:35;99679.81;;;24.45;27.88
43119;BME280;28729;49.838;8.650;2023-06-05T18:27:41;99680.78;;;24.28;28.26
43119;BME280;28729;49.838;8.650;2023-06-05T18:31:47;99681.03;;;24.15;29.08
43119;BME280;28729;49.838;8.650;2023-06-05T18:35:49;99680.66;;;23.83;29.56
43119;BME280;28729;49.838;8.650;2023-06-05T18:39:52;99690.16;;;23.61;29.65
43119;BME280;28729;49.838;8.650;2023-06-05T18:43:54;99698.56;;;23.40;29.24
43119;BME280;28729;49.838;8.650;2023-06-05T18:47:56;99703.94;;;23.24;30.06
43119;BME280;28729;49.838;8.650;2023-06-05T18:52:00;99705.66;;;22.99;30.39
43119;BME280;28729;49.838;8.650;2023-06-05T18:56:03;99699.72;;;22.83;30.26
43119;BME280;28729;49.838;8.650;2023-06-05T19:00:06;99709.88;;;22.58;30.95
43119;BME280;28729;49.838;8.650;2023-06-05T19:04:08;99708.06;;;22.36;30.91
43119;BME280;28729;49.838;8.650;2023-06-05T19:08:10;99713.84;;;22.14;31.35
43119;BME280;28729;49.838;8.650;2023-06-05T19:12:12;99714.78;;;21.92;31.60
43119;BME280;28729;49.838;8.650;2023-06-05T19:16:14;99711.31;;;21.69;31.95
43119;BME280;28729;49.838;8.650;2023-06-05T19:20:16;99712.22;;;21.47;32.82
43119;BME280;28729;49.838;8.650;2023-06-05T19:24:20;99717.03;;;21.24;32.83
43119;BME280;28729;49.838;8.650;2023-06-05T19:28:23;99711.00;;;20.99;33.91
43119;BME280;28729;49.838;8.650;2023-06-05T19:32:25;99709.59;;;20.88;33.42
43119;BME280;28729;49.838;8.650;2023-06-05T19:36:27;99716.59;;;20.68;34.31
43119;BME280;28729;49.838;8.650;2023-06-05T19:40:29;99716.44;;;20.51;34.43
43119;BME280;28729;49.838;8.650;2023-06-05T19:44:31;99718.81;;;20.35;34.65
43119;BME280;28729;49.838;8.650;2023-06-05T19:48:33;99722.28;;;20.18;35.07
43119;BME280;28729;49.838;8.650;2023-06-05T19:52:35;99729.06;;;20.03;35.19
43119;BME280;28729;49.838;8.650;2023-06-05T19:56:37;99729.28;;;19.93;35.31
43119;BME280;28729;49.838;8.650;2023-06-05T20:00:40;99735.94;;;19.83;35.74
43119;BME280;28729;49.838;8.650;2023-06-05T20:04:42;99733.03;;;19.74;36.39
43119;BME280;28729;49.838;8.650;2023-06-05T20:08:44;99727.44;;;19.61;36.41
43119;BME280;28729;49.838;8.650;2023-06-05T20:12:47;99737.72;;;19.51;36.67
43119;BME280;28729;49.838;8.650;2023-06-05T20:16:50;99741.03;;;19.40;37.55
43119;BME280;28729;49.838;8.650;2023-06-05T20:20:52;99749.59;;;19.29;38.11
43119;BME280;28729;49.838;8.650;2023-06-05T20:24:59;99747.81;;;19.20;39.07
43119;BME280;28729;49.838;8.650;2023-06-05T20:29:07;99741.91;;;19.07;39.79
43119;BME280;28729;49.838;8.650;2023-06-05T20:33:15;99743.16;;;19.01;39.83
43119;BME280;28729;49.838;8.650;2023-06-05T20:37:17;99749.34;;;18.98;39.91
43119;BME280;28729;49.838;8.650;2023-06-05T20:41:19;99749.66;;;18.97;40.97
43119;BME280;28729;49.838;8.650;2023-06-05T20:45:23;99750.19;;;18.99;41.20
43119;BME280;28729;49.838;8.650;2023-06-05T20:49:28;99752.16;;;18.98;42.29
43119;BME280;28729;49.838;8.650;2023-06-05T20:53:30;99754.41;;;18.96;42.46
43119;BME280;28729;49.838;8.650;2023-06-05T20:57:33;99751.09;;;18.94;42.81
43119;BME280;28729;49.838;8.650;2023-06-05T21:01:35;99760.06;;;18.91;43.15
43119;BME280;28729;49.838;8.650;2023-06-05T21:05:37;99756.25;;;18.87;43.06
43119;BME280;28729;49.838;8.650;2023-06-05T21:09:39;99761.72;;;18.78;43.78
43119;BME280;28729;49.838;8.650;2023-06-05T21:13:41;99757.94;;;18.69;44.24
43119;BME280;28729;49.838;8.650;2023-06-05T21:17:43;99763.38;;;18.60;45.03
43119;BME280;28729;49.838;8.650;2023-06-05T21:21:46;99760.75;;;18.50;45.94
43119;BME280;28729;49.838;8.650;2023-06-05T21:25:48;99766.41;;;18.45;46.69
43119;BME280;28729;49.838;8.650;2023-06-05T21:29:49;99768.75;;;18.38;47.85
43119;BME280;28729;49.838;8.650;2023-06-05T21:33:53;99761.06;;;18.30;48.21
43119;BME280;28729;49.838;8.650;2023-06-05T21:37:54;99760.09;;;18.20;48.92
43119;BME280;28729;49.838;8.650;2023-06-05T21:41:58;99761.59;;;18.13;50.15
43119;BME280;28729;49.838;8.650;2023-06-05T21:46:00;99769.19;;;18.07;51.42